Time;durP1;ratioP1;P1;durP2;ratioP2;P2;SDS_P1;SDS_P2;PMS_P1;PMS_P2;Temp;Humidity;BMP_temperature;BMP_pressure;BME280_temperature;BME280_humidity;BME280_pressure;Samples;Min_cycle;Max_cycle;Signal;HPM_P1;HPM_P2
2023/12/01 00:00:05;;;;;;;574.67;529.92;;;0.40;99.90;;;;;;5034728;28;20029;-90
2023/12/01 00:02:31;;;;;;;587.10;542.83;;;0.10;99.90;;;;;;4995502;28;20037;-89
2023/12/01 00:04:57;;;;;;;563.15;519.63;;;0.90;99.90;;;;;;5020764;28;20104;-89
2023/12/01 00:07:22;;;;;;;576.53;532.33;;;0.20;99.90;;;;;;5023885;28;20560;-89
2023/12/01 00:09:48;;;;;;;565.95;522.85;;;0.50;99.90;;;;;;5023358;28;20387;-89
2023/12/01 00:12:14;;;;;;;561.20;520.20;;;0.10;99.90;;;;;;5026095;28;20033;-89
2023/12/01 00:14:41;;;;;;;564.28;522.22;;;-0.40;99.90;;;;;;5015693;28;20068;-89
2023/12/01 00:17:07;;;;;;;556.53;514.80;;;0.00;99.90;;;;;;5013803;28;20073;-90
2023/12/01 00:19:33;;;;;;;561.92;520.50;;;0.90;99.90;;;;;;5019565;28;20520;-90
2023/12/01 00:21:58;;;;;;;563.63;521.45;;;0.90;99.90;;;;;;5018269;28;20034;-90
2023/12/01 00:24:27;;;;;;;558.92;517.50;;;0.30;99.90;;;;;;5023911;28;20065;-90
2023/12/01 00:26:53;;;;;;;553.30;512.20;;;0.00;99.90;;;;;;5022890;28;20045;-90
2023/12/01 00:29:19;;;;;;;536.88;498.05;;;-0.40;99.90;;;;;;5004985;28;20077;-90
2023/12/01 00:31:45;;;;;;;563.75;522.10;;;0.90;99.90;;;;;;5023423;28;20046;-90
2023/12/01 00:34:10;;;;;;;538.65;499.30;;;-0.10;99.90;;;;;;4989745;28;20049;-90
2023/12/01 00:36:36;;;;;;;549.70;509.42;;;0.80;99.90;;;;;;5022895;28;20559;-90
2023/12/01 00:39:02;;;;;;;545.83;506.05;;;1.00;99.90;;;;;;5013176;28;20037;-90
2023/12/01 00:41:30;;;;;;;552.70;511.58;;;-0.20;99.90;;;;;;5020497;28;20057;-90
2023/12/01 00:43:56;;;;;;;531.85;493.27;;;0.40;99.90;;;;;;5018156;28;20050;-90
2023/12/01 00:46:22;;;;;;;556.85;516.10;;;-0.20;99.90;;;;;;5000446;28;20045;-90
2023/12/01 00:48:47;;;;;;;573.92;532.85;;;-0.30;99.90;;;;;;5007421;28;20065;-90
2023/12/01 00:51:18;;;;;;;570.33;528.85;;;-0.40;99.90;;;;;;5002096;28;20037;-90
2023/12/01 00:53:44;;;;;;;557.50;518.15;;;-0.30;99.90;;;;;;4995094;28;20162;-90
2023/12/01 00:56:13;;;;;;;563.17;524.10;;;0.00;99.90;;;;;;4999485;28;20038;-90
2023/12/01 00:58:39;;;;;;;565.40;525.53;;;-0.40;99.90;;;;;;5002112;28;20407;-89
2023/12/01 01:01:06;;;;;;;572.40;531.20;;;1.00;99.90;;;;;;5012703;28;20099;-90
2023/12/01 01:03:32;;;;;;;564.58;524.83;;;-0.50;99.90;;;;;;5000177;28;20033;-89
2023/12/01 01:06:00;;;;;;;564.85;524.08;;;-0.50;99.90;;;;;;4991090;28;20045;-90
2023/12/01 01:08:27;;;;;;;565.17;525.10;;;-0.50;99.90;;;;;;4999794;28;20038;-90
2023/12/01 01:10:54;;;;;;;607.17;562.63;;;0.40;99.90;;;;;;5003391;28;20056;-90
2023/12/01 01:13:20;;;;;;;597.00;553.40;;;-0.70;99.90;;;;;;5013274;28;20037;-91
2023/12/01 01:15:46;;;;;;;588.28;545.78;;;-0.80;99.90;;;;;;5005857;28;20049;-90
2023/12/01 01:18:11;;;;;;;609.38;564.63;;;-0.20;99.90;;;;;;5017349;28;20489;-90
2023/12/01 01:20:37;;;;;;;600.17;556.97;;;-0.90;99.90;;;;;;5014100;28;20395;-90
2023/12/01 01:23:03;;;;;;;607.72;563.20;;;-0.90;99.90;;;;;;5038272;28;20045;-90
2023/12/01 01:25:30;;;;;;;602.67;558.35;;;-0.30;99.90;;;;;;5021696;28;20117;-91
2023/12/01 01:27:56;;;;;;;611.40;566.35;;;0.50;99.90;;;;;;4996829;28;20073;-90
2023/12/01 01:30:22;;;;;;;619.25;573.33;;;-0.90;99.90;;;;;;5000968;28;20038;-90
2023/12/01 01:32:48;;;;;;;565.00;524.95;;;-0.90;99.90;;;;;;4998750;28;20060;-90
2023/12/01 01:35:14;;;;;;;568.40;527.08;;;-0.90;99.90;;;;;;5018208;28;20038;-89
2023/12/01 01:37:40;;;;;;;597.58;554.92;;;-1.00;99.90;;;;;;5000492;28;20041;-91
2023/12/01 01:40:07;;;;;;;626.65;580.35;;;-0.40;99.90;;;;;;5013612;28;20122;-90
2023/12/01 01:42:33;;;;;;;627.22;581.33;;;-1.10;99.90;;;;;;4999924;28;20056;-90
2023/12/01 01:44:59;;;;;;;644.55;595.22;;;-1.10;99.90;;;;;;5012677;28;20050;-91
2023/12/01 01:47:26;;;;;;;627.03;580.40;;;0.30;99.90;;;;;;4992845;28;20039;-90
2023/12/01 01:49:52;;;;;;;618.08;572.45;;;0.60;99.90;;;;;;5004091;28;20041;-90
2023/12/01 01:52:18;;;;;;;620.25;573.83;;;-0.10;99.90;;;;;;5028800;28;20061;-90
2023/12/01 01:54:44;;;;;;;641.42;592.97;;;0.50;99.90;;;;;;5015853;28;20409;-90
2023/12/01 01:57:10;;;;;;;571.00;528.67;;;-0.20;99.90;;;;;;5017101;28;20037;-91
2023/12/01 01:59:38;;;;;;;625.55;578.85;;;-0.20;99.90;;;;;;5022569;28;20029;-90
2023/12/01 02:02:05;;;;;;;633.50;585.63;;;-0.20;99.90;;;;;;5016102;28;20046;-90
2023/12/01 02:04:31;;;;;;;633.15;585.13;;;-0.70;99.90;;;;;;4995087;28;20042;-91
2023/12/01 02:06:58;;;;;;;596.80;552.05;;;0.90;99.90;;;;;;5015572;28;20046;-91
2023/12/01 02:09:24;;;;;;;653.90;605.15;;;-1.30;99.90;;;;;;4999297;28;20033;-90
2023/12/01 02:11:53;;;;;;;646.15;597.78;;;-1.40;99.90;;;;;;4997415;28;20037;-91
2023/12/01 02:14:18;;;;;;;663.15;612.40;;;-1.30;99.90;;;;;;4989265;28;20061;-91
2023/12/01 02:16:47;;;;;;;643.95;595.60;;;-1.30;99.90;;;;;;4995277;28;20038;-91
2023/12/01 02:19:13;;;;;;;662.55;611.95;;;-1.30;99.90;;;;;;5019905;28;20060;-91
2023/12/01 02:21:47;;;;;;;653.90;604.08;;;-1.30;99.90;;;;;;4998203;28;20038;-90
2023/12/01 02:24:13;;;;;;;644.15;595.03;;;-1.30;99.90;;;;;;5003551;28;20126;-90
2023/12/01 02:26:41;;;;;;;670.95;619.72;;;-1.30;99.90;;;;;;5031927;28;20073;-91
2023/12/01 02:29:07;;;;;;;633.90;579.70;;;-0.60;99.90;;;;;;4987665;28;20038;-90
2023/12/01 02:31:33;;;;;;;665.25;612.22;;;-1.50;99.90;;;;;;5008286;28;20104;-91
2023/12/01 02:33:59;;;;;;;669.88;618.20;;;-1.80;99.90;;;;;;5011655;28;20050;-90
2023/12/01 02:36:25;;;;;;;643.72;595.45;;;-1.20;99.90;;;;;;5000421;28;20087;-90
2023/12/01 02:38:51;;;;;;;650.25;601.58;;;-0.60;99.90;;;;;;4999832;28;20037;-91
2023/12/01 02:41:17;;;;;;;632.72;584.90;;;-1.70;99.90;;;;;;4995422;28;20045;-91
2023/12/01 02:43:43;;;;;;;642.30;594.50;;;-1.40;99.90;;;;;;4999992;28;20050;-90
2023/12/01 02:46:12;;;;;;;648.25;600.00;;;0.10;99.90;;;;;;4995409;28;20054;-91
2023/12/01 02:48:40;;;;;;;629.47;583.05;;;-0.30;99.90;;;;;;4994246;28;20038;-90
2023/12/01 02:51:07;;;;;;;634.75;587.10;;;-1.10;99.90;;;;;;4994233;28;20048;-91
2023/12/01 02:53:33;;;;;;;602.60;557.55;;;-1.30;99.90;;;;;;4999085;28;20040;-90
2023/12/01 02:55:59;;;;;;;594.03;550.70;;;-0.60;99.90;;;;;;4992589;28;20050;-90
2023/12/01 02:58:25;;;;;;;589.92;546.70;;;-1.50;99.90;;;;;;4997573;28;20044;-90
2023/12/01 03:00:51;;;;;;;599.03;555.67;;;-1.40;99.90;;;;;;5000268;28;20038;-90
2023/12/01 03:03:17;;;;;;;613.17;568.00;;;-1.50;99.90;;;;;;5015377;28;20132;-90
2023/12/01 03:05:42;;;;;;;631.05;584.17;;;-1.40;99.90;;;;;;5015300;28;20045;-90
2023/12/01 03:08:08;;;;;;;652.85;604.15;;;-1.70;99.90;;;;;;5013285;28;20025;-90
2023/12/01 03:10:37;;;;;;;628.55;582.40;;;-1.70;99.90;;;;;;5015362;28;20092;-91
2023/12/01 03:13:03;;;;;;;629.95;583.70;;;-1.70;99.90;;;;;;4993511;28;20097;-90
2023/12/01 03:15:29;;;;;;;616.40;570.70;;;-1.60;99.90;;;;;;5010607;28;20072;-90
2023/12/01 03:17:55;;;;;;;633.60;586.50;;;-1.60;99.90;;;;;;5018966;28;20045;-90
2023/12/01 03:20:21;;;;;;;622.72;576.65;;;-0.10;99.90;;;;;;4994934;28;20040;-90
2023/12/01 03:22:51;;;;;;;639.28;590.67;;;-1.60;99.90;;;;;;5007861;28;20041;-90
2023/12/01 03:25:18;;;;;;;624.15;577.53;;;-0.60;99.90;;;;;;5018698;28;20041;-90
2023/12/01 03:27:45;;;;;;;615.00;570.10;;;-1.70;99.90;;;;;;5015690;28;20033;-90
2023/12/01 03:30:15;;;;;;;578.40;536.10;;;-0.50;99.90;;;;;;4996353;28;20408;-91
2023/12/01 03:32:44;;;;;;;624.22;576.92;;;-0.50;99.90;;;;;;4997216;28;20045;-90
2023/12/01 03:35:16;;;;;;;615.22;569.88;;;-0.40;99.90;;;;;;5011199;28;20033;-89
2023/12/01 03:37:43;;;;;;;598.55;554.70;;;-2.00;99.90;;;;;;4994217;28;20049;-90
2023/12/01 03:40:12;;;;;;;603.17;559.13;;;-0.70;99.90;;;;;;4996507;28;20062;-90
2023/12/01 03:42:47;;;;;;;591.05;547.47;;;-2.30;99.90;;;;;;4991172;28;20049;-90
2023/12/01 03:45:13;;;;;;;597.90;554.13;;;-2.10;99.90;;;;;;5008106;28;20073;-90
2023/12/01 03:47:41;;;;;;;610.17;565.70;;;-2.10;99.90;;;;;;4986163;28;20075;-90
2023/12/01 03:50:11;;;;;;;632.50;584.60;;;-2.30;99.90;;;;;;5008449;28;20054;-90
2023/12/01 03:52:38;;;;;;;627.58;580.80;;;-2.30;99.90;;;;;;4990910;28;20101;-90
2023/12/01 03:55:04;;;;;;;623.15;577.15;;;-2.30;99.90;;;;;;4997006;28;20080;-90
2023/12/01 03:57:30;;;;;;;638.25;589.60;;;-2.30;99.90;;;;;;4999642;28;20502;-90
2023/12/01 03:59:55;;;;;;;630.90;584.80;;;-2.40;99.90;;;;;;5024084;28;20022;-90
2023/12/01 04:02:21;;;;;;;617.20;571.33;;;-2.50;99.90;;;;;;5003012;28;20030;-90
2023/12/01 04:04:48;;;;;;;622.60;576.75;;;-2.40;99.90;;;;;;5015131;28;20038;-90
2023/12/01 04:07:15;;;;;;;641.53;593.72;;;-2.60;99.90;;;;;;5010585;28;20041;-90
2023/12/01 04:09:41;;;;;;;625.45;578.80;;;-2.30;99.90;;;;;;5015765;28;20049;-90
2023/12/01 04:12:07;;;;;;;621.88;576.47;;;-0.80;99.90;;;;;;5009097;28;20453;-90
2023/12/01 04:14:33;;;;;;;627.15;580.35;;;-4.00;99.90;;;;;;4996987;28;20037;-90
2023/12/01 04:17:08;;;;;;;621.65;575.42;;;-2.00;99.90;;;;;;4998444;28;20037;-90
2023/12/01 04:19:38;;;;;;;638.47;590.58;;;-1.40;99.90;;;;;;4999670;28;20080;-90
2023/12/01 04:22:06;;;;;;;626.00;579.78;;;-1.00;99.90;;;;;;4990835;28;20133;-90
2023/12/01 04:24:33;;;;;;;621.17;575.47;;;-1.30;99.90;;;;;;5000080;28;20040;-90
2023/12/01 04:27:00;;;;;;;620.35;574.83;;;-1.00;99.90;;;;;;4998980;28;20045;-90
2023/12/01 04:29:30;;;;;;;617.15;571.85;;;-1.40;99.90;;;;;;4990823;28;20038;-90
2023/12/01 04:31:57;;;;;;;636.83;590.30;;;-1.60;99.90;;;;;;4993623;28;20042;-90
2023/12/01 04:34:26;;;;;;;615.67;571.10;;;-2.90;99.90;;;;;;5013081;28;20553;-90
2023/12/01 04:36:53;;;;;;;640.05;593.72;;;-2.90;99.90;;;;;;4997385;28;20084;-90
2023/12/01 04:39:20;;;;;;;628.40;582.75;;;-2.90;99.90;;;;;;4998756;28;20705;-90
2023/12/01 04:41:47;;;;;;;630.25;584.55;;;-3.00;99.90;;;;;;5015003;28;20034;-90
2023/12/01 04:44:13;;;;;;;626.70;581.28;;;-1.80;99.90;;;;;;4997015;28;20045;-90
2023/12/01 04:46:38;;;;;;;613.15;568.85;;;-3.00;99.90;;;;;;5017969;28;20137;-90
2023/12/01 04:49:08;;;;;;;626.75;581.55;;;-3.00;99.90;;;;;;5016623;28;20038;-90
2023/12/01 04:51:35;;;;;;;623.47;578.75;;;-3.00;99.90;;;;;;4996415;28;20041;-90
2023/12/01 04:54:02;;;;;;;609.90;565.45;;;-3.10;99.90;;;;;;4998003;28;20041;-90
2023/12/01 04:56:27;;;;;;;622.80;577.50;;;-1.90;99.90;;;;;;4994916;28;20098;-89
2023/12/01 04:58:55;;;;;;;613.95;569.47;;;-2.50;99.90;;;;;;5017595;28;20391;-89
2023/12/01 05:01:21;;;;;;;609.10;565.33;;;-3.10;99.90;;;;;;5017641;28;20040;-89
2023/12/01 05:03:46;;;;;;;635.95;588.92;;;-3.20;99.90;;;;;;5015603;28;20033;-88
2023/12/01 05:06:12;;;;;;;619.40;574.58;;;-2.00;99.90;;;;;;5017176;28;20136;-88
2023/12/01 05:08:38;;;;;;;624.42;579.80;;;-3.20;99.90;;;;;;5014174;28;20038;-89
2023/12/01 05:11:04;;;;;;;580.30;538.95;;;-3.30;99.90;;;;;;5011505;28;20038;-89
2023/12/01 05:13:31;;;;;;;625.45;580.15;;;-3.30;99.90;;;;;;5016830;28;20034;-88
2023/12/01 05:15:57;;;;;;;630.05;584.17;;;-3.20;99.90;;;;;;5000933;28;20510;-88
2023/12/01 05:18:22;;;;;;;616.00;571.53;;;-3.30;99.90;;;;;;4994468;28;20092;-89
2023/12/01 05:20:48;;;;;;;618.20;572.90;;;-3.30;99.90;;;;;;5004503;28;20668;-89
2023/12/01 05:23:14;;;;;;;601.90;558.55;;;-2.10;99.90;;;;;;5007771;28;20125;-89
2023/12/01 05:25:44;;;;;;;619.30;573.85;;;-3.40;99.90;;;;;;4991051;28;20033;-89
2023/12/01 05:28:10;;;;;;;623.67;578.15;;;-3.40;99.90;;;;;;5006849;28;20112;-89
2023/12/01 05:30:40;;;;;;;606.47;561.92;;;-2.20;99.90;;;;;;5008067;28;20411;-89
2023/12/01 05:33:06;;;;;;;614.65;569.75;;;-3.40;99.90;;;;;;4990893;28;20618;-89
2023/12/01 05:35:36;;;;;;;623.88;578.35;;;-3.40;99.90;;;;;;4986534;28;20038;-87
2023/12/01 05:38:04;;;;;;;595.55;552.55;;;-3.40;99.90;;;;;;4974988;28;20053;-89
2023/12/01 05:40:35;;;;;;;605.58;561.33;;;-2.00;99.90;;;;;;4991932;28;20519;-89
2023/12/01 05:43:06;;;;;;;619.45;573.90;;;-3.50;99.90;;;;;;4985573;28;20439;-89
2023/12/01 05:45:33;;;;;;;615.97;571.17;;;-2.50;99.90;;;;;;5004749;28;20038;-89
2023/12/01 05:47:59;;;;;;;611.30;567.10;;;-3.50;99.90;;;;;;5000655;28;20056;-88
2023/12/01 05:50:27;;;;;;;628.10;581.85;;;-3.60;99.90;;;;;;5021140;28;20037;-89
2023/12/01 05:52:55;;;;;;;606.17;561.72;;;-3.50;99.90;;;;;;5019954;28;20036;-88
2023/12/01 05:55:25;;;;;;;613.72;569.08;;;-3.10;99.90;;;;;;5008180;28;20113;-88
2023/12/01 05:57:57;;;;;;;633.88;587.92;;;-3.50;99.90;;;;;;5021466;28;20049;-88
2023/12/01 06:00:30;;;;;;;618.42;573.22;;;-2.50;99.90;;;;;;4998411;28;20414;-88
2023/12/01 06:03:02;;;;;;;613.42;569.05;;;-3.60;99.90;;;;;;4997540;28;20049;-89
2023/12/01 06:05:28;;;;;;;619.13;573.58;;;-3.60;99.90;;;;;;5010152;28;20047;-88
2023/12/01 06:08:01;;;;;;;600.50;556.53;;;-3.60;99.90;;;;;;5000032;28;20069;-87
2023/12/01 06:10:30;;;;;;;622.10;576.95;;;-2.90;99.90;;;;;;5015840;28;20140;-88
2023/12/01 06:12:56;;;;;;;626.72;581.10;;;-3.70;99.90;;;;;;5007817;28;20033;-88
2023/12/01 06:15:24;;;;;;;609.40;564.30;;;-5.20;99.90;;;;;;5000186;28;20101;-89
2023/12/01 06:17:54;;;;;;;628.50;581.95;;;-1.80;99.90;;;;;;5006923;28;20413;-88
2023/12/01 06:20:22;;;;;;;600.75;556.00;;;-4.50;99.90;;;;;;4983685;28;20041;-89
2023/12/01 06:23:05;;;;;;;632.72;586.53;;;-3.70;99.90;;;;;;5020020;28;20042;-88
2023/12/01 06:25:33;;;;;;;612.75;568.65;;;-4.00;99.90;;;;;;5000750;28;20034;-88
2023/12/01 06:28:01;;;;;;;622.70;577.28;;;-2.10;99.90;;;;;;4995931;28;20132;-89
2023/12/01 06:30:28;;;;;;;582.85;540.42;;;-3.70;99.90;;;;;;5003519;28;20042;-89
2023/12/01 06:32:54;;;;;;;623.13;577.00;;;-2.40;99.90;;;;;;5019443;28;20042;-89
2023/12/01 06:35:21;;;;;;;621.15;575.88;;;-2.50;99.90;;;;;;5002399;28;20050;-88
2023/12/01 06:37:47;;;;;;;613.65;568.85;;;-3.70;99.90;;;;;;4997679;28;20042;-88
2023/12/01 06:40:18;;;;;;;586.03;543.58;;;-2.00;99.90;;;;;;4990383;28;20038;-89
2023/12/01 06:42:51;;;;;;;618.65;572.63;;;-3.70;99.90;;;;;;5012063;28;20045;-88
2023/12/01 06:45:18;;;;;;;618.63;572.92;;;-3.70;99.90;;;;;;4996197;28;20069;-86
2023/12/01 06:47:46;;;;;;;609.20;565.05;;;-2.20;99.90;;;;;;4999824;28;20042;-86
2023/12/01 06:50:16;;;;;;;615.08;570.17;;;-2.50;99.90;;;;;;5003163;28;20040;-87
2023/12/01 06:52:44;;;;;;;598.33;555.15;;;-3.70;99.90;;;;;;5004303;28;20112;-87
2023/12/01 06:55:10;;;;;;;601.15;557.75;;;-3.80;99.90;;;;;;4996085;28;20035;-87
2023/12/01 06:57:46;;;;;;;598.50;555.08;;;-1.90;99.90;;;;;;4991405;28;20038;-89
2023/12/01 07:00:36;;;;;;;601.30;557.67;;;-3.60;99.90;;;;;;5005276;28;20041;-90
2023/12/01 07:03:02;;;;;;;604.65;560.50;;;-3.90;99.90;;;;;;5019405;28;20171;-89
2023/12/01 07:05:31;;;;;;;593.70;550.42;;;-2.10;99.90;;;;;;5003257;28;20100;-89
2023/12/01 07:08:00;;;;;;;617.17;572.25;;;-2.30;99.90;;;;;;5007221;28;20104;-89
2023/12/01 07:10:26;;;;;;;597.30;553.75;;;-2.50;99.90;;;;;;4977579;28;20125;-89
2023/12/01 07:12:55;;;;;;;594.55;551.22;;;-3.60;99.90;;;;;;4993552;28;20085;-90
2023/12/01 07:15:23;;;;;;;592.25;548.85;;;-4.20;99.90;;;;;;5020109;28;20169;-90
2023/12/01 07:17:50;;;;;;;607.92;562.88;;;-3.90;99.90;;;;;;5016857;28;20047;-90
2023/12/01 07:20:18;;;;;;;604.55;559.97;;;-3.80;99.90;;;;;;5001731;28;20093;-90
2023/12/01 07:22:51;;;;;;;619.45;573.50;;;-3.90;99.90;;;;;;5007754;28;20037;-90
2023/12/01 07:25:25;;;;;;;628.85;582.38;;;-3.80;99.90;;;;;;5001407;28;20042;-90
2023/12/01 07:27:58;;;;;;;620.83;575.40;;;-5.10;99.90;;;;;;5011288;28;20042;-90
2023/12/01 07:30:30;;;;;;;;;;;-3.80;99.90;;;;;;4995722;28;20046;-90
2023/12/01 07:33:04;;;;;;;624.90;579.15;;;-1.40;99.90;;;;;;5039470;28;19918;-90
2023/12/01 07:35:38;;;;;;;628.75;582.88;;;-0.90;99.90;;;;;;5008791;28;20507;-89
2023/12/01 07:38:07;;;;;;;622.60;576.50;;;-2.30;99.90;;;;;;4982456;28;20042;-89
2023/12/01 07:40:33;;;;;;;628.53;582.15;;;-2.70;99.90;;;;;;5020472;28;20073;-90
2023/12/01 07:42:59;;;;;;;640.05;593.17;;;-3.70;99.90;;;;;;5026810;28;20108;-90
2023/12/01 07:45:26;;;;;;;616.28;570.92;;;-4.50;99.90;;;;;;5005795;28;20042;-90
2023/12/01 07:47:54;;;;;;;628.08;582.30;;;-2.50;99.90;;;;;;5020728;28;20028;-90
2023/12/01 07:50:21;;;;;;;613.38;568.33;;;-3.90;99.90;;;;;;5022349;28;20093;-90
2023/12/01 07:52:49;;;;;;;633.88;587.92;;;-3.20;99.90;;;;;;5012281;28;20065;-90
2023/12/01 07:55:15;;;;;;;647.03;598.65;;;-2.70;99.90;;;;;;4991420;28;20022;-90
2023/12/01 07:57:42;;;;;;;654.20;605.70;;;-3.90;99.90;;;;;;5052967;23;20144;-90
2023/12/01 08:00:16;;;;;;;670.35;620.90;;;-2.50;99.90;;;;;;5015331;28;20068;-90
2023/12/01 08:02:42;;;;;;;639.05;591.80;;;-3.60;99.90;;;;;;5028992;28;20045;-90
2023/12/01 08:05:14;;;;;;;642.63;595.22;;;-2.60;99.90;;;;;;5024187;28;20029;-90
2023/12/01 08:07:46;;;;;;;643.80;596.63;;;-1.80;99.90;;;;;;5007394;28;20060;-89
2023/12/01 08:10:14;;;;;;;635.13;588.05;;;-1.40;99.90;;;;;;5014739;28;20037;-90
2023/12/01 08:12:42;;;;;;;642.58;595.33;;;-4.60;99.90;;;;;;4999657;28;20520;-90
2023/12/01 08:15:09;;;;;;;651.30;603.67;;;-3.50;99.90;;;;;;5009699;28;20049;-90
2023/12/01 08:17:34;;;;;;;636.35;590.10;;;-4.50;99.90;;;;;;5040395;28;20127;-90
2023/12/01 08:20:00;;;;;;;626.78;581.38;;;-3.50;99.90;;;;;;5023435;28;20054;-90
2023/12/01 08:22:26;;;;;;;624.30;579.08;;;-2.40;99.90;;;;;;5022416;28;20069;-90
2023/12/01 08:24:52;;;;;;;617.90;573.40;;;-2.40;99.90;;;;;;5034904;28;20037;-90
2023/12/01 08:27:17;;;;;;;783.08;595.05;;;-2.10;99.90;;;;;;5028496;28;20033;-90
2023/12/01 08:29:43;;;;;;;635.42;589.15;;;-2.00;99.90;;;;;;5030667;28;20070;-90
2023/12/01 08:32:10;;;;;;;635.95;590.03;;;-3.60;99.90;;;;;;5043678;28;20041;-90
2023/12/01 08:34:36;;;;;;;635.38;589.10;;;-2.40;99.90;;;;;;5003222;28;20053;-89
2023/12/01 08:37:02;;;;;;;684.17;612.75;;;-1.20;99.90;;;;;;5023028;28;20038;-90
2023/12/01 08:39:30;;;;;;;642.35;595.80;;;-3.00;99.90;;;;;;5033572;28;20034;-90
2023/12/01 08:41:56;;;;;;;645.00;598.45;;;-2.20;99.90;;;;;;5026495;28;20033;-90
2023/12/01 08:44:22;;;;;;;658.00;609.58;;;-2.20;99.90;;;;;;5029237;28;20037;-90
2023/12/01 08:46:48;;;;;;;667.25;618.65;;;-3.50;99.90;;;;;;5029738;28;20091;-90
2023/12/01 08:49:13;;;;;;;671.28;622.88;;;-1.70;99.90;;;;;;5049451;28;20475;-90
2023/12/01 08:51:43;;;;;;;681.95;632.40;;;-3.70;99.90;;;;;;5024683;28;20037;-90
2023/12/01 08:54:09;;;;;;;682.25;632.67;;;-1.40;99.90;;;;;;5016032;28;20041;-89
2023/12/01 08:56:38;;;;;;;684.63;634.65;;;-3.20;99.90;;;;;;5032314;28;20030;-90
2023/12/01 08:59:04;;;;;;;686.33;636.85;;;-3.90;99.90;;;;;;5030671;28;20070;-90
2023/12/01 09:01:29;;;;;;;677.92;628.75;;;-2.70;99.90;;;;;;5034232;28;20040;-90
2023/12/01 09:03:55;;;;;;;692.22;642.28;;;-2.70;99.90;;;;;;5029353;28;20041;-90
2023/12/01 09:06:21;;;;;;;696.35;646.80;;;-3.00;99.90;;;;;;5032637;28;20061;-90
2023/12/01 09:08:48;;;;;;;695.63;646.03;;;-0.80;99.90;;;;;;5041735;28;20067;-90
2023/12/01 09:11:14;;;;;;;695.50;645.50;;;-1.40;99.90;;;;;;5024519;28;20041;-90
2023/12/01 09:13:43;;;;;;;701.13;650.70;;;-1.60;99.90;;;;;;5032701;28;20032;-90
2023/12/01 09:16:09;;;;;;;732.08;679.13;;;-1.40;99.90;;;;;;5044407;28;20048;-90
2023/12/01 09:18:35;;;;;;;714.95;663.80;;;-2.00;99.90;;;;;;5014829;28;20054;-90
2023/12/01 09:21:01;;;;;;;706.72;656.55;;;-0.90;99.90;;;;;;5020013;28;20038;-90
2023/12/01 09:23:27;;;;;;;709.03;658.00;;;-2.70;99.90;;;;;;5045017;28;20030;-90
2023/12/01 09:25:53;;;;;;;712.33;661.58;;;-2.60;99.90;;;;;;5027512;28;20120;-90
2023/12/01 09:28:19;;;;;;;698.35;648.85;;;-0.80;99.90;;;;;;5015550;28;20037;-90
2023/12/01 09:30:45;;;;;;;705.45;655.05;;;-1.10;99.90;;;;;;5029374;28;20044;-91
2023/12/01 09:33:11;;;;;;;677.70;629.40;;;-2.10;99.90;;;;;;5010543;28;20054;-90
2023/12/01 09:35:40;;;;;;;693.15;643.20;;;-1.60;99.90;;;;;;5000437;28;20042;-90
2023/12/01 09:38:06;;;;;;;680.80;632.78;;;-1.70;99.90;;;;;;5022716;28;20097;-90
2023/12/01 09:40:38;;;;;;;671.00;623.58;;;-0.50;99.90;;;;;;5024040;28;20022;-90
2023/12/01 09:43:07;;;;;;;675.47;627.20;;;-2.10;99.90;;;;;;5015480;28;20029;-90
2023/12/01 09:45:33;;;;;;;664.50;617.38;;;-1.60;99.90;;;;;;5020217;28;20038;-89
2023/12/01 09:48:06;;;;;;;676.40;627.83;;;-3.00;99.90;;;;;;5022700;28;20037;-90
2023/12/01 09:50:32;;;;;;;676.90;628.63;;;-2.60;99.90;;;;;;5020161;28;20038;-90
2023/12/01 09:52:57;;;;;;;673.30;625.53;;;-2.20;99.90;;;;;;5029795;28;20248;-90
2023/12/01 09:55:23;;;;;;;668.22;621.08;;;-2.10;99.90;;;;;;5026246;28;20018;-90
2023/12/01 09:57:49;;;;;;;663.67;616.45;;;-0.20;99.90;;;;;;5023201;28;20064;-90
2023/12/01 10:00:15;;;;;;;675.58;627.60;;;-1.30;99.90;;;;;;4993998;28;20084;-89
2023/12/01 10:02:42;;;;;;;656.60;610.45;;;-2.90;99.90;;;;;;5009095;28;20493;-89
2023/12/01 10:05:08;;;;;;;679.90;630.97;;;-0.80;99.90;;;;;;5007623;28;20075;-90
2023/12/01 10:07:37;;;;;;;684.53;635.47;;;-1.30;99.90;;;;;;5008169;28;20120;-89
2023/12/01 10:10:24;;;;;;;698.35;647.60;;;-2.10;99.90;;;;;;5010680;28;20149;-90
2023/12/01 10:12:55;;;;;;;696.45;646.67;;;-2.20;99.90;;;;;;4995573;28;20383;-90
2023/12/01 10:15:21;;;;;;;706.58;655.42;;;-0.80;99.90;;;;;;5007698;28;20044;-89
2023/12/01 10:17:46;;;;;;;691.03;641.53;;;-1.90;99.90;;;;;;5002731;28;20490;-90
2023/12/01 10:20:18;;;;;;;707.22;657.55;;;-1.90;99.90;;;;;;5008530;28;20341;-89
2023/12/01 10:22:44;;;;;;;714.10;662.25;;;-1.60;99.90;;;;;;5001637;28;20402;-90
2023/12/01 10:25:12;;;;;;;722.28;668.33;;;-1.10;99.90;;;;;;5008808;28;20037;-90
2023/12/01 10:27:39;;;;;;;711.65;658.15;;;-1.60;99.90;;;;;;5018101;28;20048;-89
2023/12/01 10:30:23;;;;;;;726.40;673.97;;;0.00;99.90;;;;;;5005789;28;20516;-89
2023/12/01 10:32:48;;;;;;;;;;;-0.70;99.90;;;;;;5003921;28;20037;-89
2023/12/01 10:35:14;;;;;;;723.38;670.13;;;-1.30;99.90;;;;;;5010217;28;19917;-90
2023/12/01 10:37:41;;;;;;;758.78;703.05;;;-1.20;99.90;;;;;;4999159;28;20130;-90
2023/12/01 10:40:13;;;;;;;786.88;730.67;;;-1.00;99.90;;;;;;5011847;28;20061;-90
2023/12/01 10:42:40;;;;;;;784.88;728.95;;;-0.90;99.90;;;;;;5015053;28;20033;-90
2023/12/01 10:45:07;;;;;;;813.40;754.10;;;-0.90;99.90;;;;;;4987848;28;20658;-90
2023/12/01 10:47:33;;;;;;;774.70;719.08;;;-0.80;99.90;;;;;;5009494;28;20041;-90
2023/12/01 10:49:59;;;;;;;984.25;709.38;;;0.00;99.90;;;;;;5009786;28;20087;-90
2023/12/01 10:52:25;;;;;;;745.78;692.65;;;-0.70;99.90;;;;;;5008369;28;20042;-90
2023/12/01 10:54:52;;;;;;;738.03;685.13;;;-1.30;99.90;;;;;;5004048;28;20046;-90
2023/12/01 10:57:38;;;;;;;727.08;674.80;;;0.60;99.90;;;;;;5009081;28;20206;-90
2023/12/01 11:00:05;;;;;;;711.08;659.97;;;-0.50;99.90;;;;;;5011107;28;20636;-90
2023/12/01 11:02:34;;;;;;;695.78;645.85;;;-0.40;99.90;;;;;;5022194;28;20047;-90
2023/12/01 11:05:01;;;;;;;730.15;677.92;;;-0.40;99.90;;;;;;5009828;28;20077;-90
2023/12/01 11:07:33;;;;;;;737.05;683.42;;;-0.30;99.90;;;;;;5008304;28;20095;-90
2023/12/01 11:10:14;;;;;;;742.95;689.05;;;-0.30;99.90;;;;;;5005830;28;20044;-90
2023/12/01 11:12:46;;;;;;;751.40;696.13;;;-0.20;99.90;;;;;;5004410;28;20056;-90
2023/12/01 11:15:19;;;;;;;738.90;685.65;;;-0.20;99.90;;;;;;4997929;28;20268;-90
2023/12/01 11:17:46;;;;;;;756.10;698.80;;;-0.20;99.90;;;;;;4998534;28;20049;-90
2023/12/01 11:20:32;;;;;;;721.80;668.42;;;-0.10;99.90;;;;;;4989767;28;20509;-90
2023/12/01 11:23:08;;;;;;;735.60;678.45;;;-0.10;99.90;;;;;;4992147;28;20084;-91
2023/12/01 11:25:48;;;;;;;721.40;667.30;;;0.00;99.90;;;;;;5008828;28;20088;-91
2023/12/01 11:31:14;;;;;;;757.17;700.47;;;-0.20;99.90;;;;;;5041459;28;20050;-91
2023/12/01 11:33:49;;;;;;;751.65;694.70;;;-0.20;99.90;;;;;;5016476;28;20037;-91
2023/12/01 11:36:26;;;;;;;742.50;688.40;;;-0.10;99.90;;;;;;5005224;28;20043;-91
2023/12/01 11:41:42;;;;;;;711.47;658.47;;;-0.20;99.90;;;;;;5040013;28;20050;-91
2023/12/01 11:44:16;;;;;;;734.15;678.50;;;-0.20;99.90;;;;;;5010233;28;20045;-91
2023/12/01 11:46:44;;;;;;;748.88;691.88;;;-0.10;99.90;;;;;;5028557;28;20065;-91
2023/12/01 11:49:14;;;;;;;713.38;660.53;;;-0.10;99.90;;;;;;5026561;28;20048;-90
2023/12/01 11:51:43;;;;;;;744.72;689.08;;;1.10;99.90;;;;;;5040673;28;20109;-91
2023/12/01 11:54:15;;;;;;;732.92;677.78;;;-0.10;99.90;;;;;;5040233;28;20096;-91
2023/12/01 11:56:55;;;;;;;706.70;654.30;;;0.90;99.90;;;;;;5019036;28;20061;-91
2023/12/01 11:59:22;;;;;;;731.45;673.58;;;0.00;99.90;;;;;;5028270;28;20037;-90
2023/12/01 12:01:52;;;;;;;749.65;691.63;;;1.10;99.90;;;;;;5041118;28;20049;-90
2023/12/01 12:04:17;;;;;;;735.13;679.00;;;0.00;99.90;;;;;;5035545;28;20028;-91
2023/12/01 12:06:48;;;;;;;725.88;670.78;;;1.40;99.90;;;;;;5031442;28;20120;-91
2023/12/01 12:09:17;;;;;;;703.30;650.75;;;0.50;99.90;;;;;;5015874;28;20042;-91
2023/12/01 12:11:55;;;;;;;710.28;659.75;;;0.70;99.90;;;;;;5011369;28;20032;-91
2023/12/01 12:14:26;;;;;;;704.78;653.58;;;1.20;99.90;;;;;;5024147;28;20030;-90
2023/12/01 12:16:52;;;;;;;700.13;649.85;;;1.50;99.90;;;;;;5016334;28;20117;-91
2023/12/01 12:19:19;;;;;;;699.88;649.15;;;0.30;99.90;;;;;;5010783;28;20033;-91